sensor_id;sensor_type;location;lat;lon;timestamp;P1;durP1;ratioP1;P2;durP2;ratioP2
53939;SDS011;39850;43.324;21.916;2023-07-24T00:00:59;14.0;;;14.0;;
53939;SDS011;39850;43.324;21.916;2023-07-24T00:05:36;14.0;;;14.0;;
53939;SDS011;39850;43.324;21.916;2023-07-24T00:37:50;14.0;;;14.0;;
53939;SDS011;39850;43.324;21.916;2023-07-24T00:42:27;14.0;;;14.0;;
53939;SDS011;39850;43.324;21.916;2023-07-24T00:47:06;14.0;;;14.0;;
53939;SDS011;39850;43.324;21.916;2023-07-24T00:51:43;14.0;;;14.0;;
53939;SDS011;39850;43.324;21.916;2023-07-24T00:56:19;14.0;;;14.0;;
53939;SDS011;39850;43.324;21.916;2023-07-24T01:00:56;14.0;;;13.0;;
53939;SDS011;39850;43.324;21.916;2023-07-24T01:05:32;14.0;;;13.0;;
53939;SDS011;39850;43.324;21.916;2023-07-24T01:10:10;14.0;;;13.0;;
53939;SDS011;39850;43.324;21.916;2023-07-24T01:15:05;14.0;;;13.0;;
53939;SDS011;39850;43.324;21.916;2023-07-24T01:20:01;13.0;;;13.0;;
53939;SDS011;39850;43.324;21.916;2023-07-24T01:25:17;13.0;;;13.0;;
53939;SDS011;39850;43.324;21.916;2023-07-24T01:58:02;13.0;;;12.0;;
53939;SDS011;39850;43.324;21.916;2023-07-24T02:02:38;13.0;;;12.0;;
53939;SDS011;39850;43.324;21.916;2023-07-24T02:07:15;13.0;;;12.0;;
53939;SDS011;39850;43.324;21.916;2023-07-24T02:11:51;13.0;;;12.0;;
53939;SDS011;39850;43.324;21.916;2023-07-24T02:16:28;13.0;;;12.0;;
53939;SDS011;39850;43.324;21.916;2023-07-24T02:21:04;13.0;;;13.0;;
53939;SDS011;39850;43.324;21.916;2023-07-24T02:25:40;13.0;;;13.0;;
53939;SDS011;39850;43.324;21.916;2023-07-24T02:30:17;13.0;;;13.0;;
53939;SDS011;39850;43.324;21.916;2023-07-24T02:34:54;13.0;;;13.0;;
53939;SDS011;39850;43.324;21.916;2023-07-24T02:39:30;13.0;;;13.0;;
53939;SDS011;39850;43.324;21.916;2023-07-24T02:44:07;13.0;;;13.0;;
53939;SDS011;39850;43.324;21.916;2023-07-24T03:21:06;12.0;;;12.0;;
53939;SDS011;39850;43.324;21.916;2023-07-24T03:25:43;12.0;;;12.0;;
53939;SDS011;39850;43.324;21.916;2023-07-24T03:30:20;12.0;;;12.0;;
53939;SDS011;39850;43.324;21.916;2023-07-24T03:34:56;12.0;;;12.0;;
53939;SDS011;39850;43.324;21.916;2023-07-24T03:39:33;12.0;;;12.0;;
53939;SDS011;39850;43.324;21.916;2023-07-24T03:44:10;12.0;;;12.0;;
53939;SDS011;39850;43.324;21.916;2023-07-24T03:48:46;13.0;;;12.0;;
53939;SDS011;39850;43.324;21.916;2023-07-24T03:53:23;13.0;;;12.0;;
53939;SDS011;39850;43.324;21.916;2023-07-24T03:58:00;13.0;;;12.0;;
53939;SDS011;39850;43.324;21.916;2023-07-24T04:02:37;13.0;;;12.0;;
53939;SDS011;39850;43.324;21.916;2023-07-24T04:07:14;13.0;;;12.0;;
53939;SDS011;39850;43.324;21.916;2023-07-24T04:11:50;12.0;;;12.0;;
53939;SDS011;39850;43.324;21.916;2023-07-24T04:16:27;12.0;;;12.0;;
53939;SDS011;39850;43.324;21.916;2023-07-24T04:21:04;12.0;;;12.0;;
53939;SDS011;39850;43.324;21.916;2023-07-24T04:25:41;12.0;;;11.0;;
53939;SDS011;39850;43.324;21.916;2023-07-24T04:30:17;12.0;;;11.0;;
53939;SDS011;39850;43.324;21.916;2023-07-24T04:34:54;12.0;;;11.0;;
53939;SDS011;39850;43.324;21.916;2023-07-24T04:39:31;12.0;;;11.0;;
53939;SDS011;39850;43.324;21.916;2023-07-24T04:44:07;12.0;;;11.0;;
53939;SDS011;39850;43.324;21.916;2023-07-24T04:48:44;12.0;;;11.0;;
53939;SDS011;39850;43.324;21.916;2023-07-24T05:25:36;11.0;;;11.0;;
53939;SDS011;39850;43.324;21.916;2023-07-24T05:30:13;11.0;;;11.0;;
53939;SDS011;39850;43.324;21.916;2023-07-24T05:34:49;11.0;;;10.0;;
53939;SDS011;39850;43.324;21.916;2023-07-24T05:39:26;11.0;;;10.0;;
53939;SDS011;39850;43.324;21.916;2023-07-24T05:44:03;11.0;;;11.0;;
53939;SDS011;39850;43.324;21.916;2023-07-24T05:48:39;11.0;;;11.0;;
53939;SDS011;39850;43.324;21.916;2023-07-24T05:53:17;12.0;;;10.0;;
53939;SDS011;39850;43.324;21.916;2023-07-24T05:57:54;12.0;;;10.0;;
53939;SDS011;39850;43.324;21.916;2023-07-24T06:02:31;12.0;;;11.0;;
53939;SDS011;39850;43.324;21.916;2023-07-24T06:07:08;12.0;;;11.0;;
53939;SDS011;39850;43.324;21.916;2023-07-24T06:44:00;12.0;;;12.0;;
53939;SDS011;39850;43.324;21.916;2023-07-24T06:48:37;12.0;;;12.0;;
53939;SDS011;39850;43.324;21.916;2023-07-24T06:53:14;12.0;;;12.0;;
53939;SDS011;39850;43.324;21.916;2023-07-24T06:57:51;12.0;;;12.0;;
53939;SDS011;39850;43.324;21.916;2023-07-24T07:02:28;12.0;;;11.0;;
53939;SDS011;39850;43.324;21.916;2023-07-24T07:07:05;12.0;;;11.0;;
53939;SDS011;39850;43.324;21.916;2023-07-24T07:11:42;12.0;;;11.0;;
53939;SDS011;39850;43.324;21.916;2023-07-24T07:16:19;12.0;;;11.0;;
53939;SDS011;39850;43.324;21.916;2023-07-24T07:20:56;12.0;;;11.0;;
53939;SDS011;39850;43.324;21.916;2023-07-24T07:25:33;11.0;;;11.0;;
53939;SDS011;39850;43.324;21.916;2023-07-24T07:30:11;11.0;;;11.0;;
53939;SDS011;39850;43.324;21.916;2023-07-24T08:02:25;13.0;;;11.0;;
53939;SDS011;39850;43.324;21.916;2023-07-24T08:07:03;13.0;;;11.0;;
53939;SDS011;39850;43.324;21.916;2023-07-24T08:11:40;13.0;;;11.0;;
53939;SDS011;39850;43.324;21.916;2023-07-24T08:16:17;12.0;;;12.0;;
53939;SDS011;39850;43.324;21.916;2023-07-24T08:20:53;12.0;;;12.0;;
53939;SDS011;39850;43.324;21.916;2023-07-24T08:25:30;13.0;;;12.0;;
53939;SDS011;39850;43.324;21.916;2023-07-24T08:30:09;13.0;;;12.0;;
53939;SDS011;39850;43.324;21.916;2023-07-24T08:34:47;12.0;;;12.0;;
53939;SDS011;39850;43.324;21.916;2023-07-24T08:39:24;12.0;;;12.0;;
53939;SDS011;39850;43.324;21.916;2023-07-24T08:44:03;13.0;;;12.0;;
53939;SDS011;39850;43.324;21.916;2023-07-24T08:48:43;13.0;;;12.0;;
53939;SDS011;39850;43.324;21.916;2023-07-24T09:35:03;14.0;;;13.0;;
53939;SDS011;39850;43.324;21.916;2023-07-24T09:39:40;14.0;;;13.0;;
53939;SDS011;39850;43.324;21.916;2023-07-24T09:44:17;14.0;;;13.0;;
53939;SDS011;39850;43.324;21.916;2023-07-24T09:48:59;14.0;;;13.0;;
53939;SDS011;39850;43.324;21.916;2023-07-24T09:54:09;14.0;;;13.0;;
53939;SDS011;39850;43.324;21.916;2023-07-24T09:58:54;14.0;;;13.0;;
53939;SDS011;39850;43.324;21.916;2023-07-24T10:03:39;15.0;;;13.0;;
53939;SDS011;39850;43.324;21.916;2023-07-24T10:08:19;15.0;;;13.0;;
53939;SDS011;39850;43.324;21.916;2023-07-24T10:45:50;14.0;;;13.0;;
53939;SDS011;39850;43.324;21.916;2023-07-24T10:50:43;14.0;;;13.0;;
53939;SDS011;39850;43.324;21.916;2023-07-24T10:55:23;14.0;;;13.0;;
53939;SDS011;39850;43.324;21.916;2023-07-24T11:00:00;14.0;;;13.0;;
53939;SDS011;39850;43.324;21.916;2023-07-24T11:04:36;14.0;;;13.0;;
53939;SDS011;39850;43.324;21.916;2023-07-24T11:09:13;14.0;;;13.0;;
53939;SDS011;39850;43.324;21.916;2023-07-24T11:13:49;14.0;;;13.0;;
53939;SDS011;39850;43.324;21.916;2023-07-24T11:18:26;14.0;;;13.0;;
53939;SDS011;39850;43.324;21.916;2023-07-24T11:23:03;14.0;;;13.0;;
53939;SDS011;39850;43.324;21.916;2023-07-24T11:27:44;14.0;;;13.0;;
53939;SDS011;39850;43.324;21.916;2023-07-24T11:32:22;14.0;;;13.0;;
53939;SDS011;39850;43.324;21.916;2023-07-24T12:05:01;15.0;;;13.0;;
53939;SDS011;39850;43.324;21.916;2023-07-24T12:09:41;15.0;;;13.0;;
53939;SDS011;39850;43.324;21.916;2023-07-24T12:14:18;14.0;;;14.0;;
53939;SDS011;39850;43.324;21.916;2023-07-24T12:18:55;14.0;;;14.0;;
53939;SDS011;39850;43.324;21.916;2023-07-24T12:23:31;14.0;;;14.0;;
53939;SDS011;39850;43.324;21.916;2023-07-24T12:28:08;14.0;;;14.0;;
53939;SDS011;39850;43.324;21.916;2023-07-24T12:32:45;14.0;;;14.0;;
53939;SDS011;39850;43.324;21.916;2023-07-24T12:37:22;14.0;;;14.0;;
53939;SDS011;39850;43.324;21.916;2023-07-24T12:41:58;14.0;;;14.0;;
53939;SDS011;39850;43.324;21.916;2023-07-24T12:46:35;14.0;;;14.0;;
53939;SDS011;39850;43.324;21.916;2023-07-24T12:51:12;14.0;;;14.0;;
53939;SDS011;39850;43.324;21.916;2023-07-24T13:23:27;16.0;;;14.0;;
53939;SDS011;39850;43.324;21.916;2023-07-24T13:28:04;16.0;;;14.0;;
53939;SDS011;39850;43.324;21.916;2023-07-24T13:32:41;16.0;;;14.0;;
53939;SDS011;39850;43.324;21.916;2023-07-24T13:37:17;16.0;;;14.0;;
53939;SDS011;39850;43.324;21.916;2023-07-24T13:41:54;16.0;;;14.0;;
53939;SDS011;39850;43.324;21.916;2023-07-24T13:46:30;16.0;;;14.0;;
53939;SDS011;39850;43.324;21.916;2023-07-24T13:51:06;16.0;;;14.0;;
53939;SDS011;39850;43.324;21.916;2023-07-24T13:55:43;16.0;;;14.0;;
53939;SDS011;39850;43.324;21.916;2023-07-24T14:00:20;16.0;;;14.0;;
53939;SDS011;39850;43.324;21.916;2023-07-24T14:04:57;16.0;;;14.0;;
53939;SDS011;39850;43.324;21.916;2023-07-24T14:09:34;16.0;;;14.0;;
53939;SDS011;39850;43.324;21.916;2023-07-24T14:46:26;17.0;;;15.0;;
53939;SDS011;39850;43.324;21.916;2023-07-24T14:51:03;17.0;;;15.0;;
53939;SDS011;39850;43.324;21.916;2023-07-24T14:55:41;16.0;;;14.0;;
53939;SDS011;39850;43.324;21.916;2023-07-24T15:00:19;16.0;;;14.0;;
53939;SDS011;39850;43.324;21.916;2023-07-24T15:04:55;15.0;;;14.0;;
53939;SDS011;39850;43.324;21.916;2023-07-24T15:09:32;15.0;;;14.0;;
53939;SDS011;39850;43.324;21.916;2023-07-24T15:14:09;15.0;;;14.0;;
53939;SDS011;39850;43.324;21.916;2023-07-24T15:18:45;15.0;;;14.0;;
53939;SDS011;39850;43.324;21.916;2023-07-24T15:23:22;15.0;;;13.0;;
53939;SDS011;39850;43.324;21.916;2023-07-24T15:27:59;15.0;;;13.0;;
53939;SDS011;39850;43.324;21.916;2023-07-24T15:32:35;15.0;;;13.0;;
53939;SDS011;39850;43.324;21.916;2023-07-24T16:04:53;15.0;;;12.0;;
53939;SDS011;39850;43.324;21.916;2023-07-24T16:09:29;15.0;;;12.0;;
53939;SDS011;39850;43.324;21.916;2023-07-24T16:14:05;14.0;;;12.0;;
53939;SDS011;39850;43.324;21.916;2023-07-24T16:18:42;14.0;;;12.0;;
53939;SDS011;39850;43.324;21.916;2023-07-24T16:23:20;14.0;;;12.0;;
53939;SDS011;39850;43.324;21.916;2023-07-24T16:27:56;15.0;;;12.0;;
53939;SDS011;39850;43.324;21.916;2023-07-24T16:32:32;15.0;;;12.0;;
53939;SDS011;39850;43.324;21.916;2023-07-24T16:37:09;16.0;;;14.0;;
53939;SDS011;39850;43.324;21.916;2023-07-24T16:41:46;16.0;;;14.0;;
53939;SDS011;39850;43.324;21.916;2023-07-24T16:46:23;18.0;;;17.0;;
53939;SDS011;39850;43.324;21.916;2023-07-24T16:51:00;18.0;;;17.0;;
53939;SDS011;39850;43.324;21.916;2023-07-24T17:27:56;15.0;;;12.0;;
53939;SDS011;39850;43.324;21.916;2023-07-24T17:32:33;15.0;;;12.0;;
53939;SDS011;39850;43.324;21.916;2023-07-24T17:37:10;16.0;;;12.0;;
53939;SDS011;39850;43.324;21.916;2023-07-24T17:41:47;16.0;;;12.0;;
53939;SDS011;39850;43.324;21.916;2023-07-24T17:46:23;15.0;;;12.0;;
53939;SDS011;39850;43.324;21.916;2023-07-24T17:51:00;15.0;;;12.0;;
53939;SDS011;39850;43.324;21.916;2023-07-24T17:55:37;16.0;;;12.0;;
53939;SDS011;39850;43.324;21.916;2023-07-24T18:00:18;16.0;;;12.0;;
53939;SDS011;39850;43.324;21.916;2023-07-24T18:04:55;15.0;;;12.0;;
53939;SDS011;39850;43.324;21.916;2023-07-24T18:09:31;15.0;;;12.0;;
53939;SDS011;39850;43.324;21.916;2023-07-24T18:46:23;16.0;;;13.0;;
53939;SDS011;39850;43.324;21.916;2023-07-24T18:51:00;16.0;;;13.0;;
53939;SDS011;39850;43.324;21.916;2023-07-24T18:55:36;16.0;;;13.0;;
53939;SDS011;39850;43.324;21.916;2023-07-24T19:00:15;16.0;;;13.0;;
53939;SDS011;39850;43.324;21.916;2023-07-24T19:04:51;16.0;;;13.0;;
53939;SDS011;39850;43.324;21.916;2023-07-24T19:09:28;16.0;;;13.0;;
53939;SDS011;39850;43.324;21.916;2023-07-24T19:14:05;16.0;;;13.0;;
53939;SDS011;39850;43.324;21.916;2023-07-24T19:18:41;16.0;;;13.0;;
53939;SDS011;39850;43.324;21.916;2023-07-24T19:23:18;16.0;;;13.0;;
53939;SDS011;39850;43.324;21.916;2023-07-24T19:27:54;16.0;;;13.0;;
53939;SDS011;39850;43.324;21.916;2023-07-24T19:32:31;16.0;;;13.0;;
53939;SDS011;39850;43.324;21.916;2023-07-24T20:04:51;17.0;;;14.0;;
53939;SDS011;39850;43.324;21.916;2023-07-24T20:09:28;17.0;;;14.0;;
53939;SDS011;39850;43.324;21.916;2023-07-24T20:14:05;17.0;;;14.0;;
53939;SDS011;39850;43.324;21.916;2023-07-24T20:18:42;16.0;;;14.0;;
53939;SDS011;39850;43.324;21.916;2023-07-24T20:23:20;16.0;;;14.0;;
53939;SDS011;39850;43.324;21.916;2023-07-24T20:27:57;16.0;;;14.0;;
53939;SDS011;39850;43.324;21.916;2023-07-24T20:32:33;16.0;;;14.0;;
53939;SDS011;39850;43.324;21.916;2023-07-24T20:37:10;16.0;;;14.0;;
53939;SDS011;39850;43.324;21.916;2023-07-24T20:41:47;16.0;;;14.0;;
53939;SDS011;39850;43.324;21.916;2023-07-24T20:46:23;15.0;;;13.0;;
53939;SDS011;39850;43.324;21.916;2023-07-24T20:51:00;15.0;;;13.0;;
53939;SDS011;39850;43.324;21.916;2023-07-24T21:27:52;17.0;;;14.0;;
53939;SDS011;39850;43.324;21.916;2023-07-24T21:32:29;17.0;;;14.0;;
53939;SDS011;39850;43.324;21.916;2023-07-24T21:37:05;16.0;;;14.0;;
53939;SDS011;39850;43.324;21.916;2023-07-24T21:41:42;16.0;;;14.0;;
53939;SDS011;39850;43.324;21.916;2023-07-24T21:46:18;17.0;;;14.0;;
53939;SDS011;39850;43.324;21.916;2023-07-24T21:50:54;17.0;;;14.0;;
53939;SDS011;39850;43.324;21.916;2023-07-24T21:55:31;16.0;;;14.0;;
53939;SDS011;39850;43.324;21.916;2023-07-24T22:00:12;16.0;;;14.0;;
53939;SDS011;39850;43.324;21.916;2023-07-24T22:04:49;17.0;;;14.0;;
53939;SDS011;39850;43.324;21.916;2023-07-24T22:09:25;17.0;;;14.0;;
53939;SDS011;39850;43.324;21.916;2023-07-24T22:14:02;17.0;;;14.0;;
53939;SDS011;39850;43.324;21.916;2023-07-24T22:46:20;15.0;;;14.0;;
53939;SDS011;39850;43.324;21.916;2023-07-24T22:50:57;15.0;;;14.0;;
53939;SDS011;39850;43.324;21.916;2023-07-24T22:55:35;15.0;;;14.0;;
53939;SDS011;39850;43.324;21.916;2023-07-24T23:00:13;15.0;;;14.0;;
53939;SDS011;39850;43.324;21.916;2023-07-24T23:04:50;15.0;;;14.0;;
53939;SDS011;39850;43.324;21.916;2023-07-24T23:09:27;15.0;;;14.0;;
53939;SDS011;39850;43.324;21.916;2023-07-24T23:14:04;15.0;;;14.0;;
53939;SDS011;39850;43.324;21.916;2023-07-24T23:18:41;15.0;;;14.0;;
53939;SDS011;39850;43.324;21.916;2023-07-24T23:23:17;15.0;;;14.0;;
53939;SDS011;39850;43.324;21.916;2023-07-24T23:27:54;15.0;;;14.0;;
53939;SDS011;39850;43.324;21.916;2023-07-24T23:32:30;15.0;;;14.0;;
